createdAt,value
2022-08-01T00:01:06.069Z,98618.20
2022-08-01T00:03:42.055Z,98616.20
2022-08-01T00:06:18.006Z,98613.20
2022-08-01T00:08:53.998Z,98614.60
2022-08-01T00:11:30.077Z,98611.00
2022-08-01T00:14:06.317Z,98611.80
2022-08-01T00:16:42.786Z,98616.00
2022-08-01T00:19:18.710Z,98610.20
2022-08-01T00:21:54.614Z,98609.40
2022-08-01T00:24:30.718Z,98609.80
2022-08-01T00:27:06.859Z,98612.20
2022-08-01T00:30:01.057Z,98612.80
2022-08-01T00:32:39.233Z,98615.80
2022-08-01T00:35:15.847Z,98611.40
2022-08-01T00:37:52.734Z,98609.60
2022-08-01T00:40:28.927Z,98611.80
2022-08-01T00:43:05.960Z,98613.40
2022-08-01T00:45:42.021Z,98612.40
2022-08-01T00:48:18.078Z,98614.00
2022-08-01T00:50:54.562Z,98615.60
2022-08-01T00:53:38.729Z,98618.40
2022-08-01T00:56:30.077Z,98615.60
2022-08-01T00:59:07.631Z,98615.20
2022-08-01T01:01:46.701Z,98616.60
2022-08-01T01:04:23.354Z,98615.80
2022-08-01T01:07:12.309Z,98619.00
2022-08-01T01:09:58.852Z,98623.20
2022-08-01T01:12:48.145Z,98621.60
2022-08-01T01:15:41.950Z,98623.20
2022-08-01T01:18:27.532Z,98618.60
2022-08-01T01:21:16.482Z,98619.20
2022-08-01T01:24:14.007Z,98621.60
2022-08-01T01:27:03.614Z,98617.20
2022-08-01T01:29:58.498Z,98619.20
2022-08-01T01:32:45.610Z,98618.80
2022-08-01T01:35:28.436Z,98621.20
2022-08-01T01:38:11.068Z,98619.20
2022-08-01T01:40:49.909Z,98623.00
2022-08-01T01:43:29.061Z,98621.40
2022-08-01T01:46:12.640Z,98626.00
2022-08-01T01:48:51.513Z,98622.20
2022-08-01T01:51:31.763Z,98624.40
2022-08-01T01:54:10.557Z,98623.00
2022-08-01T01:56:51.410Z,98622.40
2022-08-01T01:59:32.379Z,98629.00
2022-08-01T02:02:12.159Z,98625.40
2022-08-01T02:04:51.163Z,98624.60
2022-08-01T02:07:30.196Z,98625.80
2022-08-01T02:10:10.177Z,98626.60
2022-08-01T02:12:51.018Z,98622.60
2022-08-01T02:15:30.241Z,98625.40
2022-08-01T02:18:08.246Z,98624.80
2022-08-01T02:20:44.499Z,98624.80
2022-08-01T02:23:22.716Z,98624.00
2022-08-01T02:26:10.962Z,98621.00
2022-08-01T02:28:55.650Z,98621.80
2022-08-01T02:31:40.805Z,98620.80
2022-08-01T02:34:22.018Z,98621.20
2022-08-01T02:37:01.044Z,98622.60
2022-08-01T02:39:40.543Z,98622.80
2022-08-01T02:42:20.372Z,98623.80
2022-08-01T02:44:58.297Z,98624.60
2022-08-01T02:47:37.105Z,98628.60
2022-08-01T02:50:17.964Z,98628.00
2022-08-01T02:52:57.458Z,98635.40
2022-08-01T02:55:37.213Z,98636.80
2022-08-01T02:58:14.894Z,98635.00
2022-08-01T03:00:54.268Z,98633.80
2022-08-01T03:03:30.783Z,98640.40
2022-08-01T03:06:08.425Z,98638.40
2022-08-01T03:08:46.487Z,98638.20
2022-08-01T03:11:26.217Z,98641.60
2022-08-01T03:14:07.246Z,98641.80
2022-08-01T03:16:47.869Z,98643.40
2022-08-01T03:19:28.585Z,98645.20
2022-08-01T03:22:08.210Z,98647.20
2022-08-01T03:24:48.275Z,98644.80
2022-08-01T03:27:29.574Z,98645.00
2022-08-01T03:30:11.596Z,98644.00
2022-08-01T03:32:48.335Z,98642.00
2022-08-01T03:35:35.017Z,98641.40
2022-08-01T03:38:16.724Z,98640.20
2022-08-01T03:40:57.747Z,98643.20
2022-08-01T03:43:43.642Z,98641.00
2022-08-01T03:46:27.192Z,98645.20
2022-08-01T03:49:13.151Z,98648.00
2022-08-01T03:51:51.935Z,98656.00
2022-08-01T03:54:33.813Z,98658.60
2022-08-01T03:57:34.956Z,98662.20
2022-08-01T04:00:10.638Z,98659.20
2022-08-01T04:02:51.446Z,98663.00
2022-08-01T04:05:27.861Z,98663.60
2022-08-01T04:08:03.849Z,98660.80
2022-08-01T04:10:40.404Z,98660.60
2022-08-01T04:13:16.445Z,98663.80
2022-08-01T04:15:52.392Z,98662.20
2022-08-01T04:18:28.319Z,98661.40
2022-08-01T04:21:04.332Z,98658.80
2022-08-01T04:23:43.449Z,98666.80
2022-08-01T04:26:22.100Z,98663.20
2022-08-01T04:29:00.374Z,98668.40
2022-08-01T04:31:38.425Z,98673.80
2022-08-01T04:34:18.932Z,98668.60
2022-08-01T04:36:58.919Z,98672.60
2022-08-01T04:39:50.726Z,98676.40
2022-08-01T04:42:33.521Z,98678.60
2022-08-01T04:45:14.170Z,98683.80
2022-08-01T04:47:51.531Z,98680.40
2022-08-01T04:50:27.970Z,98685.20
2022-08-01T04:53:04.241Z,98681.40
2022-08-01T04:55:40.232Z,98688.40
2022-08-01T04:58:18.927Z,98687.20
2022-08-01T05:00:55.050Z,98682.80
2022-08-01T05:03:31.931Z,98683.20
2022-08-01T05:06:10.421Z,98687.00
2022-08-01T05:08:47.028Z,98690.60
2022-08-01T05:11:23.315Z,98684.80
2022-08-01T05:13:59.275Z,98690.40
2022-08-01T05:16:35.130Z,98691.80
2022-08-01T05:19:11.068Z,98694.20
2022-08-01T05:21:47.038Z,98697.80
2022-08-01T05:24:23.834Z,98691.80
2022-08-01T05:27:01.142Z,98693.80
2022-08-01T05:29:44.359Z,98691.20
2022-08-01T05:32:21.011Z,98697.20
2022-08-01T05:34:57.351Z,98701.80
2022-08-01T05:37:33.423Z,98698.20
2022-08-01T05:40:12.654Z,98701.60
2022-08-01T05:42:48.516Z,98704.60
2022-08-01T05:45:24.703Z,98709.60
2022-08-01T05:48:00.558Z,98707.40
2022-08-01T05:50:38.008Z,98706.60
2022-08-01T05:53:14.105Z,98704.60
2022-08-01T05:55:50.078Z,98708.60
2022-08-01T05:58:26.106Z,98711.00
2022-08-01T06:01:02.044Z,98709.60
2022-08-01T06:03:38.148Z,98710.20
2022-08-01T06:06:16.044Z,98708.60
2022-08-01T06:08:52.934Z,98711.80
2022-08-01T06:11:28.929Z,98713.00
2022-08-01T06:14:04.856Z,98712.20
2022-08-01T06:16:40.812Z,98711.80
2022-08-01T06:19:16.731Z,98717.60
2022-08-01T06:21:52.769Z,98718.40
2022-08-01T06:24:28.893Z,98723.60
2022-08-01T06:27:05.802Z,98723.40
2022-08-01T06:29:58.138Z,98728.40
2022-08-01T06:32:34.214Z,98728.00
2022-08-01T06:35:12.094Z,98727.80
2022-08-01T06:37:48.130Z,98728.20
2022-08-01T06:40:24.041Z,98732.00
2022-08-01T06:43:00.031Z,98733.80
2022-08-01T06:45:37.728Z,98733.20
2022-08-01T06:48:13.679Z,98733.20
2022-08-01T06:50:49.548Z,98737.60
2022-08-01T06:53:25.386Z,98738.20
2022-08-01T06:56:01.307Z,98736.80
2022-08-01T06:58:37.600Z,98739.00
2022-08-01T07:01:13.751Z,98743.40
2022-08-01T07:03:53.181Z,98745.60
2022-08-01T07:06:31.315Z,98743.60
2022-08-01T07:09:12.250Z,98743.00
2022-08-01T07:11:51.631Z,98747.80
2022-08-01T07:14:28.347Z,98749.00
2022-08-01T07:17:04.455Z,98742.20
2022-08-01T07:19:40.619Z,98746.00
2022-08-01T07:22:23.412Z,98746.20
2022-08-01T07:24:59.731Z,98745.80
2022-08-01T07:27:37.511Z,98747.60
2022-08-01T07:30:15.919Z,98746.60
2022-08-01T07:32:52.042Z,98748.40
2022-08-01T07:35:28.172Z,98750.00
2022-08-01T07:38:04.116Z,98748.20
2022-08-01T07:40:40.177Z,98751.60
2022-08-01T07:43:16.100Z,98747.80
2022-08-01T07:45:52.048Z,98756.20
2022-08-01T07:48:28.156Z,98752.20
2022-08-01T07:51:04.416Z,98754.60
2022-08-01T07:53:40.509Z,98749.60
2022-08-01T07:56:16.450Z,98744.40
2022-08-01T07:58:52.492Z,98745.00
2022-08-01T08:01:29.338Z,98748.60
2022-08-01T08:04:05.546Z,98749.40
2022-08-01T08:06:42.381Z,98745.00
2022-08-01T08:09:18.896Z,98743.00
2022-08-01T08:11:55.221Z,98741.20
2022-08-01T08:14:32.948Z,98738.60
2022-08-01T08:17:09.645Z,98739.40
2022-08-01T08:19:45.594Z,98739.60
2022-08-01T08:22:21.725Z,98738.40
2022-08-01T08:24:59.894Z,98743.20
2022-08-01T08:27:37.846Z,98742.80
2022-08-01T08:30:15.935Z,98743.60
2022-08-01T08:32:51.838Z,98748.00
2022-08-01T08:35:40.439Z,98741.00
2022-08-01T08:38:27.082Z,98746.80
2022-08-01T08:41:06.887Z,98741.80
2022-08-01T08:43:43.604Z,98748.00
2022-08-01T08:46:28.104Z,98746.20
2022-08-01T08:49:06.605Z,98744.80
2022-08-01T08:51:46.204Z,98744.00
2022-08-01T08:54:28.889Z,98745.80
2022-08-01T08:57:07.974Z,98748.40
2022-08-01T08:59:44.845Z,98748.40
2022-08-01T09:02:20.801Z,98748.40
2022-08-01T09:04:57.138Z,98747.80
2022-08-01T09:07:33.205Z,98749.40
2022-08-01T09:10:11.647Z,98746.80
2022-08-01T09:13:08.345Z,98745.60
2022-08-01T09:15:54.725Z,98743.00
2022-08-01T09:18:41.728Z,98745.00
2022-08-01T09:21:24.110Z,98743.80
2022-08-01T09:24:03.996Z,98745.80
2022-08-01T09:26:42.376Z,98747.00
2022-08-01T09:29:28.967Z,98749.80
2022-08-01T09:32:16.177Z,98753.40
2022-08-01T09:34:52.449Z,98751.60
2022-08-01T09:37:37.174Z,98748.40
2022-08-01T09:40:16.185Z,98746.20
2022-08-01T09:42:53.726Z,98743.60
2022-08-01T09:45:43.756Z,98747.60
2022-08-01T09:48:22.435Z,98744.80
2022-08-01T09:51:04.272Z,98748.00
2022-08-01T09:53:53.421Z,98747.40
2022-08-01T09:56:40.301Z,98747.60
2022-08-01T09:59:17.463Z,98746.80
2022-08-01T10:01:55.384Z,98745.40
2022-08-01T10:04:32.141Z,98748.80
2022-08-01T10:07:16.584Z,98750.20
2022-08-01T10:09:53.341Z,98743.20
2022-08-01T10:12:34.185Z,98743.40
2022-08-01T10:15:15.820Z,98740.80
2022-08-01T10:18:00.103Z,98744.20
2022-08-01T10:20:38.271Z,98745.00
2022-08-01T10:23:15.129Z,98742.60
2022-08-01T10:25:56.311Z,98740.00
2022-08-01T10:28:39.472Z,98735.00
2022-08-01T10:31:18.799Z,98736.00
2022-08-01T10:33:56.486Z,98739.00
2022-08-01T10:36:41.017Z,98740.20
2022-08-01T10:39:20.258Z,98740.60
2022-08-01T10:41:57.346Z,98734.00
2022-08-01T10:44:38.098Z,98735.40
2022-08-01T10:47:23.320Z,98730.20
2022-08-01T10:50:15.921Z,98733.00
2022-08-01T10:53:24.091Z,98731.40
2022-08-01T10:56:13.022Z,98729.40
2022-08-01T10:59:02.546Z,98729.40
2022-08-01T11:01:45.366Z,98730.80
2022-08-01T11:04:23.093Z,98726.60
2022-08-01T11:07:10.614Z,98729.20
2022-08-01T11:09:51.985Z,98724.00
2022-08-01T11:12:44.366Z,98724.80
2022-08-01T11:15:50.190Z,98729.20
2022-08-01T11:18:38.039Z,98730.20
2022-08-01T11:21:56.881Z,98727.20
2022-08-01T11:24:11.975Z,98731.20
2022-08-01T11:27:23.835Z,98728.20
2022-08-01T11:30:30.819Z,98730.40
2022-08-01T11:33:10.585Z,98731.60
2022-08-01T11:36:55.396Z,98734.40
2022-08-01T11:39:23.735Z,98729.00
2022-08-01T11:42:22.177Z,98728.00
2022-08-01T11:44:58.447Z,98728.60
2022-08-01T11:47:54.694Z,98728.40
2022-08-01T11:50:41.163Z,98727.80
2022-08-01T11:53:17.832Z,98729.20
2022-08-01T11:56:00.274Z,98724.60
2022-08-01T11:58:36.392Z,98721.60
2022-08-01T12:01:19.237Z,98724.80
2022-08-01T12:04:02.001Z,98722.40
2022-08-01T12:06:37.989Z,98724.40
2022-08-01T12:09:27.521Z,98720.80
2022-08-01T12:12:03.597Z,98727.80
2022-08-01T12:14:40.670Z,98728.80
2022-08-01T12:17:16.778Z,98727.80
2022-08-01T12:19:55.574Z,98723.20
2022-08-01T12:22:31.763Z,98726.40
2022-08-01T12:25:16.251Z,98723.80
2022-08-01T12:27:56.626Z,98724.00
2022-08-01T12:30:36.478Z,98722.00
2022-08-01T12:33:21.501Z,98723.80
2022-08-01T12:35:58.736Z,98719.00
2022-08-01T12:38:35.702Z,98719.20
2022-08-01T12:41:15.626Z,98712.20
2022-08-01T12:43:52.271Z,98714.60
2022-08-01T12:46:28.373Z,98722.20
2022-08-01T12:49:04.538Z,98717.40
2022-08-01T12:51:40.751Z,98717.20
2022-08-01T12:54:16.800Z,98716.20
2022-08-01T12:56:54.055Z,98712.00
2022-08-01T12:59:33.517Z,98712.00
2022-08-01T13:02:16.161Z,98709.00
2022-08-01T13:05:01.149Z,98709.40
2022-08-01T13:07:51.181Z,98711.20
2022-08-01T13:10:35.649Z,98701.60
2022-08-01T13:13:19.965Z,98701.40
2022-08-01T13:16:16.219Z,98706.40
2022-08-01T13:19:06.860Z,98704.00
2022-08-01T13:21:57.935Z,98703.80
2022-08-01T13:24:34.694Z,98703.80
2022-08-01T13:27:21.945Z,98700.20
2022-08-01T13:30:11.983Z,98701.60
2022-08-01T13:32:59.291Z,98704.80
2022-08-01T13:35:36.829Z,98706.60
2022-08-01T13:38:12.756Z,98703.60
2022-08-01T13:40:48.834Z,98699.20
2022-08-01T13:43:24.814Z,98698.80
2022-08-01T13:46:01.210Z,98697.60
2022-08-01T13:48:38.157Z,98697.00
2022-08-01T13:51:22.175Z,98705.60
2022-08-01T13:53:59.193Z,98705.40
2022-08-01T13:56:35.772Z,98713.00
2022-08-01T13:59:11.949Z,98710.20
2022-08-01T14:01:48.090Z,98708.40
2022-08-01T14:04:24.591Z,98713.80
2022-08-01T14:07:05.489Z,98715.20
2022-08-01T14:10:04.498Z,98716.00
2022-08-01T14:12:42.099Z,98721.40
2022-08-01T14:15:38.860Z,98722.80
2022-08-01T14:18:16.634Z,98722.80
2022-08-01T14:20:54.862Z,98727.40
2022-08-01T14:23:32.824Z,98728.80
2022-08-01T14:26:12.367Z,98725.80
2022-08-01T14:28:48.619Z,98725.00
2022-08-01T14:31:24.612Z,98722.40
2022-08-01T14:34:00.837Z,98727.20
2022-08-01T14:36:38.397Z,98731.00
2022-08-01T14:39:15.291Z,98731.00
2022-08-01T14:41:51.269Z,98735.60
2022-08-01T14:44:28.171Z,98738.80
2022-08-01T14:47:16.252Z,98738.60
2022-08-01T14:49:58.009Z,98743.80
2022-08-01T14:52:34.022Z,98741.00
2022-08-01T14:55:14.494Z,98737.40
2022-08-01T14:57:50.426Z,98736.20
2022-08-01T15:00:26.419Z,98740.80
2022-08-01T15:03:02.808Z,98737.80
2022-08-01T15:05:39.210Z,98733.80
2022-08-01T15:08:16.015Z,98734.20
2022-08-01T15:10:52.486Z,98734.20
2022-08-01T15:13:28.481Z,98733.20
2022-08-01T15:16:04.868Z,98733.60
2022-08-01T15:18:43.109Z,98732.80
2022-08-01T15:21:39.859Z,98735.20
2022-08-01T15:24:15.563Z,98731.80
2022-08-01T15:26:53.637Z,98735.20
2022-08-01T15:29:29.625Z,98732.00
2022-08-01T15:32:07.585Z,98732.20
2022-08-01T15:34:44.662Z,98732.20
2022-08-01T15:37:20.912Z,98733.60
2022-08-01T15:39:57.107Z,98734.20
2022-08-01T15:42:33.323Z,98732.60
2022-08-01T15:45:37.348Z,98733.40
2022-08-01T15:48:10.434Z,98734.00
2022-08-01T15:50:46.771Z,98732.40
2022-08-01T15:53:22.786Z,98735.20
2022-08-01T15:55:59.391Z,98735.20
2022-08-01T15:58:35.344Z,98733.20
2022-08-01T16:01:11.253Z,98736.60
2022-08-01T16:03:47.136Z,98728.80
2022-08-01T16:06:23.371Z,98731.80
2022-08-01T16:08:59.608Z,98731.00
2022-08-01T16:11:39.605Z,98734.40
2022-08-01T16:14:18.629Z,98731.20
2022-08-01T16:16:54.900Z,98731.00
2022-08-01T16:19:30.847Z,98730.80
2022-08-01T16:22:07.105Z,98732.40
2022-08-01T16:24:43.399Z,98733.20
2022-08-01T16:27:19.437Z,98733.40
2022-08-01T16:29:55.443Z,98733.80
2022-08-01T16:32:45.440Z,98730.80
2022-08-01T16:35:27.582Z,98732.20
2022-08-01T16:38:14.063Z,98734.20
2022-08-01T16:40:50.086Z,98735.20
2022-08-01T16:43:26.480Z,98732.60
2022-08-01T16:46:02.435Z,98731.00
2022-08-01T16:48:38.706Z,98730.20
2022-08-01T16:51:14.944Z,98727.80
2022-08-01T16:53:50.871Z,98727.80
2022-08-01T16:56:26.882Z,98727.20
2022-08-01T16:59:02.931Z,98730.80
2022-08-01T17:01:58.817Z,98729.40
2022-08-01T17:04:35.204Z,98734.20
2022-08-01T17:07:11.431Z,98734.80
2022-08-01T17:09:47.398Z,98736.60
2022-08-01T17:12:23.239Z,98745.60
2022-08-01T17:14:59.487Z,98748.80
2022-08-01T17:17:38.981Z,98747.00
2022-08-01T17:20:16.823Z,98749.40
2022-08-01T17:22:52.853Z,98753.00
2022-08-01T17:25:29.118Z,98751.20
2022-08-01T17:28:05.545Z,98753.00
2022-08-01T17:30:41.969Z,98754.00
2022-08-01T17:33:17.895Z,98752.00
2022-08-01T17:35:53.835Z,98753.40
2022-08-01T17:38:29.947Z,98759.60
2022-08-01T17:41:05.970Z,98756.40
2022-08-01T17:43:42.013Z,98756.20
2022-08-01T17:46:18.522Z,98757.40
2022-08-01T17:48:55.089Z,98758.20
2022-08-01T17:51:31.697Z,98756.40
2022-08-01T17:54:08.495Z,98761.40
2022-08-01T17:56:46.123Z,98762.80
2022-08-01T17:59:22.560Z,98767.00
2022-08-01T18:01:58.675Z,98761.00
2022-08-01T18:04:41.256Z,98767.40
2022-08-01T18:07:20.494Z,98769.80
2022-08-01T18:09:57.722Z,98774.20
2022-08-01T18:12:37.072Z,98774.40
2022-08-01T18:15:15.368Z,98776.80
2022-08-01T18:17:51.484Z,98784.40
2022-08-01T18:20:27.644Z,98783.60
2022-08-01T18:23:03.549Z,98785.40
2022-08-01T18:25:39.920Z,98784.60
2022-08-01T18:28:25.625Z,98790.60
2022-08-01T18:31:11.809Z,98789.00
2022-08-01T18:33:48.128Z,98794.60
2022-08-01T18:36:33.360Z,98792.40
2022-08-01T18:39:12.988Z,98796.00
2022-08-01T18:41:48.931Z,98799.40
2022-08-01T18:44:26.028Z,98799.80
2022-08-01T18:47:01.982Z,98799.20
2022-08-01T18:49:38.145Z,98800.20
2022-08-01T18:52:14.373Z,98801.80
2022-08-01T18:54:51.981Z,98806.20
2022-08-01T18:57:28.144Z,98808.40
2022-08-01T19:00:07.953Z,98810.60
2022-08-01T19:02:43.891Z,98814.80
2022-08-01T19:05:19.962Z,98816.40
2022-08-01T19:08:05.107Z,98817.80
2022-08-01T19:10:45.146Z,98829.80
2022-08-01T19:13:21.152Z,98829.00
2022-08-01T19:15:57.961Z,98833.80
2022-08-01T19:18:33.975Z,98836.40
2022-08-01T19:21:11.246Z,98835.60
2022-08-01T19:24:05.413Z,98837.20
2022-08-01T19:26:48.991Z,98831.80
2022-08-01T19:29:35.423Z,98836.60
2022-08-01T19:32:14.114Z,98835.80
2022-08-01T19:35:02.586Z,98836.40
2022-08-01T19:37:41.299Z,98842.20
2022-08-01T19:40:27.353Z,98839.60
2022-08-01T19:43:04.850Z,98841.00
2022-08-01T19:45:43.042Z,98837.60
2022-08-01T19:48:20.134Z,98837.20
2022-08-01T19:50:57.948Z,98837.40
2022-08-01T19:53:37.430Z,98840.20
2022-08-01T19:56:15.412Z,98840.00
2022-08-01T19:59:00.332Z,98842.40
2022-08-01T20:01:37.408Z,98841.00
2022-08-01T20:04:17.668Z,98841.80
2022-08-01T20:06:53.919Z,98834.60
2022-08-01T20:09:33.379Z,98834.80
2022-08-01T20:12:11.670Z,98841.00
2022-08-01T20:14:50.044Z,98844.00
2022-08-01T20:17:26.911Z,98844.20
2022-08-01T20:20:02.985Z,98846.60
2022-08-01T20:22:44.722Z,98847.40
2022-08-01T20:25:24.053Z,98843.40
2022-08-01T20:28:01.590Z,98846.80
2022-08-01T20:30:37.717Z,98849.60
2022-08-01T20:33:15.332Z,98852.80
2022-08-01T20:35:54.428Z,98851.20
2022-08-01T20:38:32.650Z,98853.40
2022-08-01T20:41:09.409Z,98859.20
2022-08-01T20:43:46.397Z,98857.60
2022-08-01T20:46:26.684Z,98860.80
2022-08-01T20:49:04.106Z,98863.00
2022-08-01T20:51:42.485Z,98861.80
2022-08-01T20:54:18.975Z,98853.80
2022-08-01T20:57:04.927Z,98855.00
2022-08-01T20:59:56.620Z,98856.60
2022-08-01T21:03:01.582Z,98862.80
2022-08-01T21:05:55.750Z,98863.40
2022-08-01T21:08:45.326Z,98858.40
2022-08-01T21:11:26.810Z,98864.80
2022-08-01T21:14:07.404Z,98864.20
2022-08-01T21:16:54.087Z,98866.20
2022-08-01T21:19:35.255Z,98870.80
2022-08-01T21:22:37.551Z,98869.20
2022-08-01T21:25:23.242Z,98870.20
2022-08-01T21:28:05.809Z,98873.40
2022-08-01T21:30:55.563Z,98872.40
2022-08-01T21:33:34.783Z,98875.00
2022-08-01T21:36:14.079Z,98880.80
2022-08-01T21:38:53.600Z,98879.60
2022-08-01T21:42:04.975Z,98884.60
2022-08-01T21:44:29.889Z,98885.60
2022-08-01T21:47:11.959Z,98885.60
2022-08-01T21:49:48.120Z,98880.40
2022-08-01T21:52:25.755Z,98876.60
2022-08-01T21:55:22.655Z,98876.20
2022-08-01T21:58:30.889Z,98877.40
2022-08-01T22:01:17.676Z,98877.80
2022-08-01T22:04:00.748Z,98878.00
2022-08-01T22:06:42.563Z,98882.60
2022-08-01T22:09:22.029Z,98888.00
2022-08-01T22:12:01.841Z,98885.20
2022-08-01T22:14:43.708Z,98886.40
2022-08-01T22:17:25.514Z,98886.60
2022-08-01T22:20:02.228Z,98888.40
2022-08-01T22:22:50.674Z,98885.40
2022-08-01T22:25:32.736Z,98881.60
2022-08-01T22:28:10.470Z,98884.00
2022-08-01T22:30:48.669Z,98890.20
2022-08-01T22:33:25.838Z,98888.40
2022-08-01T22:36:03.808Z,98889.20
2022-08-01T22:38:40.064Z,98886.00
2022-08-01T22:41:20.706Z,98884.40
2022-08-01T22:44:04.698Z,98883.00
2022-08-01T22:46:57.379Z,98882.60
2022-08-01T22:49:44.684Z,98881.00
2022-08-01T22:52:30.296Z,98886.80
2022-08-01T22:55:16.233Z,98882.40
2022-08-01T22:58:00.323Z,98882.60
2022-08-01T23:00:38.902Z,98879.80
2022-08-01T23:03:24.876Z,98879.60
2022-08-01T23:06:10.399Z,98873.60
2022-08-01T23:08:49.705Z,98871.80
2022-08-01T23:11:28.141Z,98869.40
2022-08-01T23:14:05.596Z,98866.60
2022-08-01T23:16:43.789Z,98868.20
2022-08-01T23:19:22.006Z,98865.00
2022-08-01T23:21:59.218Z,98864.60
2022-08-01T23:24:38.490Z,98859.00
2022-08-01T23:27:54.359Z,98859.20
2022-08-01T23:30:32.687Z,98862.00
2022-08-01T23:33:09.649Z,98857.20
2022-08-01T23:35:51.545Z,98856.80
2022-08-01T23:38:27.690Z,98860.40
2022-08-01T23:41:14.977Z,98860.60
2022-08-01T23:43:51.078Z,98861.00
2022-08-01T23:46:28.443Z,98862.20
2022-08-01T23:49:04.533Z,98865.80
2022-08-01T23:51:41.000Z,98868.20
2022-08-01T23:54:17.006Z,98874.20
2022-08-01T23:56:54.317Z,98872.60
2022-08-01T23:59:52.942Z,98868.80
